Tabellarische Übersicht vom Montag, den 04.03.2024

Oder anderes Datum wählen:






max 8,2°C 93,0% 6,5°C 1006,3hPa 8,0°C 16,2km/h (3Bft) 7,5km/h 295° (NW) ∑0,0l/m² 0,000klx ∑0,0min
min 7,1°C 88,0% 5,7°C 1003,6hPa 3,0°C 4,3km/h (1Bft) 1,9km/h 192° (S) ∑0,0l/m² 0,000klx ∑0,0min
Ø 7,7°C 90,0% 6,2°C 1005,0hPa 6,0°C 9,2km/h (2Bft) 3,9km/h 256° (W) ∑0,0l/m² 0,000klx ∑0,0min
Zeit Temperatur Luftfeuchte Taupunkt Luftdruck Windchill Windböen Windgeschwindigkeit Windrichtung Regen Helligkeit Regenzeit
03:00 8,2°C 88,9% 6,5°C 1006,3hPa 8,2°C 14,0km/h (3Bft) 5,1km/h 262° (W) 0,0l/m² 0,000klx 0,0min
02:55 8,2°C 88,9% 6,5°C 1006,1hPa 8,2°C 8,3km/h (2Bft) 3,5km/h 281° (W) 0,0l/m² 0,000klx 0,0min
02:50 8,2°C 88,9% 6,5°C 1006,0hPa 8,2°C 8,3km/h (2Bft) 3,9km/h 270° (W) 0,0l/m² 0,000klx 0,0min
02:45 8,2°C 88,9% 6,5°C 1006,0hPa 7,5°C 15,1km/h (3Bft) 7,3km/h 295° (NW) 0,0l/m² 0,000klx 0,0min
02:40 8,2°C 88,9% 6,5°C 1006,0hPa 7,4°C 16,2km/h (3Bft) 7,5km/h 285° (W) 0,0l/m² 0,000klx 0,0min
02:35 8,2°C 88,9% 6,5°C 1005,9hPa 8,0°C 15,5km/h (3Bft) 6,7km/h 280° (W) 0,0l/m² 0,000klx 0,0min
02:30 8,2°C 88,8% 6,5°C 1005,9hPa 8,2°C 12,6km/h (3Bft) 5,2km/h 257° (W) 0,0l/m² 0,000klx 0,0min
02:25 8,2°C 88,7% 6,5°C 1005,8hPa 8,2°C 13,0km/h (3Bft) 6,3km/h 273° (W) 0,0l/m² 0,000klx 0,0min
02:20 8,2°C 88,8% 6,5°C 1005,7hPa 8,2°C 11,5km/h (2Bft) 4,5km/h 256° (W) 0,0l/m² 0,000klx 0,0min
02:15 8,2°C 89,0% 6,5°C 1005,6hPa 8,2°C 15,8km/h (3Bft) 5,8km/h 268° (W) 0,0l/m² 0,000klx 0,0min
02:10 8,2°C 89,1% 6,5°C 1005,5hPa 8,2°C 10,4km/h (2Bft) 4,6km/h 267° (W) 0,0l/m² 0,000klx 0,0min
02:05 8,1°C 89,5% 6,5°C 1005,4hPa 8,1°C 11,2km/h (2Bft) 4,4km/h 289° (W) 0,0l/m² 0,000klx 0,0min
02:00 8,0°C 90,2% 6,5°C 1005,4hPa 7,8°C 14,4km/h (3Bft) 6,7km/h 252° (W) 0,0l/m² 0,000klx 0,0min
01:55 7,8°C 90,9% 6,4°C 1005,4hPa 7,8°C 12,6km/h (3Bft) 5,7km/h 255° (W) 0,0l/m² 0,000klx 0,0min
01:50 7,7°C 91,5% 6,4°C 1005,4hPa 7,7°C 9,4km/h (2Bft) 3,5km/h 251° (W) 0,0l/m² 0,000klx 0,0min
01:45 7,5°C 92,2% 6,3°C 1005,3hPa 7,5°C 9,0km/h (2Bft) 3,8km/h 253° (W) 0,0l/m² 0,000klx 0,0min
01:40 7,3°C 92,7% 6,2°C 1005,2hPa 7,3°C 9,0km/h (2Bft) 3,4km/h 242° (SW) 0,0l/m² 0,000klx 0,0min
01:35 7,1°C 92,2% 5,9°C 1005,1hPa 7,1°C 6,1km/h (2Bft) 2,8km/h 242° (SW) 0,0l/m² 0,000klx 0,0min
01:30 7,1°C 92,0% 5,9°C 1005,1hPa 7,1°C 7,2km/h (2Bft) 2,7km/h 245° (SW) 0,0l/m² 0,000klx 0,0min
01:25 7,2°C 91,7% 5,9°C 1005,0hPa 7,2°C 5,8km/h (1Bft) 2,3km/h 258° (W) 0,0l/m² 0,000klx 0,0min
01:20 7,2°C 91,9% 6,0°C 1004,9hPa 7,2°C 4,3km/h (1Bft) 2,1km/h 252° (W) 0,0l/m² 0,000klx 0,0min
01:15 7,1°C 91,6% 5,8°C 1004,8hPa 7,1°C 9,0km/h (2Bft) 3,3km/h 236° (SW) 0,0l/m² 0,000klx 0,0min
01:10 7,2°C 91,3% 5,9°C 1004,8hPa 7,2°C 7,9km/h (2Bft) 3,1km/h 238° (SW) 0,0l/m² 0,000klx 0,0min
01:05 7,2°C 91,3% 5,9°C 1004,6hPa 7,2°C 7,9km/h (2Bft) 3,4km/h 231° (SW) 0,0l/m² 0,000klx 0,0min
01:00 7,4°C 90,6% 6,0°C 1004,5hPa 7,4°C 5,0km/h (1Bft) 2,6km/h 232° (SW) 0,0l/m² 0,000klx 0,0min
00:55 7,4°C 91,3% 6,1°C 1004,4hPa 7,4°C 9,0km/h (2Bft) 3,7km/h 239° (SW) 0,0l/m² 0,000klx 0,0min
00:50 7,2°C 90,4% 5,8°C 1004,3hPa 7,2°C 11,5km/h (2Bft) 3,4km/h 246° (SW) 0,0l/m² 0,000klx 0,0min
00:45 7,5°C 89,7% 5,9°C 1004,2hPa 7,5°C 6,1km/h (2Bft) 2,1km/h 210° (SW) 0,0l/m² 0,000klx 0,0min
00:40 7,6°C 89,7% 6,0°C 1004,1hPa 7,6°C 7,2km/h (2Bft) 3,3km/h 192° (S) 0,0l/m² 0,000klx 0,0min
00:35 7,7°C 89,6% 6,1°C 1004,1hPa 7,7°C 4,3km/h (1Bft) 2,3km/h 267° (W) 0,0l/m² 0,000klx 0,0min
00:30 7,6°C 89,6% 6,0°C 1004,0hPa 7,6°C 6,8km/h (2Bft) 3,2km/h 280° (W) 0,0l/m² 0,000klx 0,0min
00:25 7,6°C 89,5% 6,0°C 1004,0hPa 7,6°C 5,0km/h (1Bft) 2,6km/h 259° (W) 0,0l/m² 0,000klx 0,0min
00:20 7,7°C 88,8% 5,9°C 1003,9hPa 7,7°C 4,3km/h (1Bft) 1,9km/h 241° (SW) 0,0l/m² 0,000klx 0,0min
00:15 7,8°C 88,4% 6,0°C 1003,8hPa 7,8°C 4,7km/h (1Bft) 2,3km/h 264° (W) 0,0l/m² 0,000klx 0,0min
00:10 7,7°C 88,5% 6,0°C 1003,8hPa 7,7°C 5,8km/h (1Bft) 3,0km/h 257° (W) 0,0l/m² 0,000klx 0,0min
00:05 7,7°C 88,4% 5,9°C 1003,7hPa 7,7°C 6,8km/h (2Bft) 3,1km/h 280° (W) 0,0l/m² 0,000klx 0,0min
00:00 7,5°C 88,1% 5,7°C 1003,6hPa 7,5°C 8,6km/h (2Bft) 3,7km/h 281° (W) 0,0l/m² 0,000klx 0,0min

Aktuelle Wetterdaten

04.03.2024 03:00 Uhr